createdAt,value
2023-04-05T00:01:53.758Z,3.03
2023-04-05T00:04:20.955Z,3.72
2023-04-05T00:06:52.874Z,4.60
2023-04-05T00:09:20.817Z,3.50
2023-04-05T00:11:47.893Z,3.45
2023-04-05T00:14:14.464Z,3.67
2023-04-05T00:16:41.746Z,3.53
2023-04-05T00:19:08.902Z,3.90
2023-04-05T00:21:35.395Z,3.50
2023-04-05T00:24:01.857Z,3.25
2023-04-05T00:26:28.393Z,4.13
2023-04-05T00:28:54.883Z,4.13
2023-04-05T00:31:21.498Z,3.30
2023-04-05T00:33:47.942Z,3.60
2023-04-05T00:36:19.849Z,4.20
2023-04-05T00:38:48.112Z,4.03
2023-04-05T00:41:14.884Z,3.72
2023-04-05T00:43:41.823Z,4.20
2023-04-05T00:46:08.955Z,4.40
2023-04-05T00:48:36.249Z,3.55
2023-04-05T00:51:03.077Z,3.85
2023-04-05T00:53:32.201Z,4.00
2023-04-05T00:55:58.801Z,3.80
2023-04-05T00:58:25.409Z,4.07
2023-04-05T01:01:01.693Z,4.10
2023-04-05T01:03:31.794Z,4.72
2023-04-05T01:06:13.386Z,4.47
2023-04-05T01:08:52.361Z,4.47
2023-04-05T01:11:19.170Z,4.05
2023-04-05T01:13:46.750Z,4.07
2023-04-05T01:16:14.213Z,4.45
2023-04-05T01:18:41.220Z,4.32
2023-04-05T01:21:39.669Z,4.38
2023-04-05T01:24:50.815Z,3.80
2023-04-05T01:27:22.692Z,4.05
2023-04-05T01:29:58.080Z,4.45
2023-04-05T01:32:59.234Z,4.05
2023-04-05T01:35:47.477Z,4.03
2023-04-05T01:38:18.375Z,3.45
2023-04-05T01:40:45.333Z,3.70
2023-04-05T01:43:18.488Z,3.80
2023-04-05T01:45:46.209Z,4.25
2023-04-05T01:48:13.887Z,4.10
2023-04-05T01:50:40.824Z,4.45
2023-04-05T01:53:08.455Z,3.95
2023-04-05T01:55:35.050Z,4.32
2023-04-05T01:58:01.633Z,4.15
2023-04-05T02:00:28.317Z,4.03
2023-04-05T02:02:54.844Z,3.40
2023-04-05T02:05:21.313Z,4.05
2023-04-05T02:07:47.860Z,4.00
2023-04-05T02:10:14.845Z,4.95
2023-04-05T02:12:41.368Z,5.88
2023-04-05T02:15:08.548Z,4.35
2023-04-05T02:17:39.048Z,3.97
2023-04-05T02:20:12.477Z,4.70
2023-04-05T02:25:09.174Z,4.13
2023-04-05T02:27:35.736Z,4.43
2023-04-05T02:30:02.815Z,4.38
2023-04-05T02:32:29.290Z,4.55
2023-04-05T02:34:56.069Z,4.22
2023-04-05T02:37:22.683Z,4.10
2023-04-05T02:39:49.252Z,4.20
2023-04-05T02:42:15.968Z,3.85
2023-04-05T02:44:42.645Z,3.63
2023-04-05T02:47:09.131Z,3.90
2023-04-05T02:49:35.761Z,4.10
2023-04-05T02:52:02.219Z,3.78
2023-04-05T02:54:28.710Z,4.07
2023-04-05T02:56:57.734Z,4.40
2023-04-05T02:59:24.484Z,4.68
2023-04-05T03:01:51.020Z,3.70
2023-04-05T03:04:17.545Z,3.30
2023-04-05T03:06:46.432Z,4.28
2023-04-05T03:09:14.455Z,3.75
2023-04-05T03:11:40.992Z,3.78
2023-04-05T03:14:07.450Z,5.15
2023-04-05T03:16:34.503Z,4.32
2023-04-05T03:19:02.358Z,4.00
2023-04-05T03:21:30.132Z,4.18
2023-04-05T03:23:56.720Z,3.60
2023-04-05T03:26:23.386Z,4.55
2023-04-05T03:28:50.231Z,3.67
2023-04-05T03:31:18.348Z,3.60
2023-04-05T03:33:46.581Z,4.47
2023-04-05T03:36:16.570Z,5.35
2023-04-05T03:38:45.512Z,4.20
2023-04-05T03:41:12.130Z,4.35
2023-04-05T03:43:38.563Z,4.70
2023-04-05T03:46:05.105Z,3.70
2023-04-05T03:48:31.661Z,3.67
2023-04-05T03:50:58.563Z,3.95
2023-04-05T03:53:25.042Z,4.43
2023-04-05T03:55:54.211Z,4.75
2023-04-05T03:58:20.808Z,4.28
2023-04-05T04:00:47.648Z,3.83
2023-04-05T04:03:15.214Z,3.92
2023-04-05T04:05:42.275Z,4.32
2023-04-05T04:08:09.792Z,4.72
2023-04-05T04:10:36.601Z,4.35
2023-04-05T04:13:03.120Z,4.78
2023-04-05T04:15:29.626Z,4.05
2023-04-05T04:17:56.771Z,4.60
2023-04-05T04:20:23.438Z,4.10
2023-04-05T04:22:50.170Z,4.50
2023-04-05T04:25:18.973Z,4.10
2023-04-05T04:27:46.695Z,3.92
2023-04-05T04:30:15.042Z,4.68
2023-04-05T04:32:52.059Z,4.53
2023-04-05T04:35:29.289Z,4.43
2023-04-05T04:38:01.168Z,4.47
2023-04-05T04:40:41.136Z,5.93
2023-04-05T04:43:19.095Z,4.78
2023-04-05T04:45:50.002Z,5.25
2023-04-05T04:48:16.748Z,4.63
2023-04-05T04:50:44.260Z,4.68
2023-04-05T04:53:12.075Z,4.57
2023-04-05T04:55:42.356Z,4.38
2023-04-05T04:58:11.546Z,4.38
2023-04-05T05:00:44.114Z,4.25
2023-04-05T05:03:11.870Z,4.53
2023-04-05T05:05:45.381Z,4.38
2023-04-05T05:10:38.709Z,4.68
2023-04-05T05:13:05.579Z,4.63
2023-04-05T05:15:32.198Z,4.30
2023-04-05T05:17:59.187Z,4.53
2023-04-05T05:20:28.681Z,4.90
2023-04-05T05:22:55.837Z,4.65
2023-04-05T05:25:22.490Z,4.40
2023-04-05T05:27:50.999Z,4.90
2023-04-05T05:30:18.832Z,4.95
2023-04-05T05:32:45.505Z,4.88
2023-04-05T05:35:12.117Z,5.05
2023-04-05T05:37:39.009Z,5.07
2023-04-05T05:40:06.193Z,5.80
2023-04-05T05:42:33.886Z,5.20
2023-04-05T05:45:04.873Z,5.32
2023-04-05T05:47:31.917Z,4.68
2023-04-05T05:49:58.550Z,5.18
2023-04-05T05:52:25.083Z,6.03
2023-04-05T05:54:51.583Z,5.57
2023-04-05T05:57:18.077Z,5.00
2023-04-05T05:59:44.613Z,5.70
2023-04-05T06:02:11.442Z,6.20
2023-04-05T06:04:38.032Z,4.72
2023-04-05T06:07:04.609Z,5.13
2023-04-05T06:09:33.965Z,5.55
2023-04-05T06:12:01.145Z,5.55
2023-04-05T06:14:29.742Z,4.95
2023-04-05T06:16:56.482Z,4.25
2023-04-05T06:19:23.111Z,4.50
2023-04-05T06:21:49.592Z,5.00
2023-04-05T06:24:16.056Z,5.20
2023-04-05T06:26:42.542Z,5.35
2023-04-05T06:29:09.075Z,5.10
2023-04-05T06:31:36.739Z,5.05
2023-04-05T06:34:05.473Z,5.57
2023-04-05T06:36:34.224Z,5.05
2023-04-05T06:39:00.954Z,5.38
2023-04-05T06:41:28.037Z,4.78
2023-04-05T06:43:55.625Z,5.18
2023-04-05T06:46:22.516Z,4.82
2023-04-05T06:48:50.091Z,4.90
2023-04-05T06:51:17.046Z,5.28
2023-04-05T06:53:43.713Z,5.47
2023-04-05T06:56:10.897Z,5.50
2023-04-05T06:58:37.527Z,5.90
2023-04-05T07:01:04.337Z,4.93
2023-04-05T07:03:31.095Z,5.38
2023-04-05T07:05:59.418Z,5.55
2023-04-05T07:08:27.587Z,5.40
2023-04-05T07:10:54.613Z,5.47
2023-04-05T07:13:22.768Z,5.25
2023-04-05T07:15:49.259Z,6.05
2023-04-05T07:18:15.950Z,5.90
2023-04-05T07:20:43.168Z,5.35
2023-04-05T07:23:10.020Z,5.53
2023-04-05T07:25:36.616Z,5.88
2023-04-05T07:28:03.146Z,5.72
2023-04-05T07:30:31.812Z,6.00
2023-04-05T07:32:58.664Z,5.40
2023-04-05T07:35:25.461Z,5.80
2023-04-05T07:37:52.472Z,5.50
2023-04-05T07:40:19.142Z,5.28
2023-04-05T07:42:45.875Z,5.13
2023-04-05T07:45:12.513Z,5.35
2023-04-05T07:47:39.051Z,5.30
2023-04-05T07:50:07.145Z,5.57
2023-04-05T07:52:34.420Z,5.03
2023-04-05T07:55:00.834Z,5.20
2023-04-05T07:57:27.477Z,4.90
2023-04-05T07:59:55.625Z,5.50
2023-04-05T08:02:22.096Z,5.00
2023-04-05T08:04:48.631Z,5.32
2023-04-05T08:07:15.179Z,4.90
2023-04-05T08:09:41.670Z,4.88
2023-04-05T08:12:08.300Z,4.90
2023-04-05T08:14:34.798Z,5.10
2023-04-05T08:17:01.307Z,4.20
2023-04-05T08:19:27.933Z,4.07
2023-04-05T08:21:54.488Z,4.40
2023-04-05T08:24:21.105Z,4.43
2023-04-05T08:26:47.663Z,4.20
2023-04-05T08:29:14.229Z,4.07
2023-04-05T08:31:40.851Z,4.45
2023-04-05T08:34:08.454Z,4.53
2023-04-05T08:36:35.105Z,4.82
2023-04-05T08:39:01.614Z,4.88
2023-04-05T08:41:36.368Z,4.70
2023-04-05T08:44:07.060Z,5.03
2023-04-05T08:46:35.448Z,4.22
2023-04-05T08:49:11.444Z,4.82
2023-04-05T08:51:41.312Z,4.75
2023-04-05T08:54:07.978Z,4.82
2023-04-05T08:56:36.330Z,4.75
2023-04-05T08:59:15.942Z,5.10
2023-04-05T09:01:48.866Z,5.40
2023-04-05T09:04:27.329Z,5.10
2023-04-05T09:06:57.698Z,4.10
2023-04-05T09:09:25.383Z,4.90
2023-04-05T09:11:52.274Z,4.60
2023-04-05T09:14:21.303Z,4.75
2023-04-05T09:16:48.040Z,5.13
2023-04-05T09:19:14.797Z,5.25
2023-04-05T09:22:01.525Z,4.40
2023-04-05T09:24:41.186Z,5.00
2023-04-05T09:27:13.247Z,4.63
2023-04-05T09:29:41.556Z,4.47
2023-04-05T09:32:09.907Z,4.70
2023-04-05T09:34:37.555Z,4.03
2023-04-05T09:37:13.438Z,4.50
2023-04-05T09:39:40.362Z,4.60
2023-04-05T09:42:13.270Z,4.88
2023-04-05T09:45:07.237Z,4.45
2023-04-05T09:47:36.629Z,4.03
2023-04-05T09:50:23.519Z,4.35
2023-04-05T09:52:51.612Z,4.43
2023-04-05T09:55:28.853Z,4.38
2023-04-05T09:57:55.347Z,4.30
2023-04-05T10:00:23.029Z,4.55
2023-04-05T10:02:53.949Z,4.50
2023-04-05T10:05:24.493Z,4.20
2023-04-05T10:07:52.349Z,4.70
2023-04-05T10:10:20.465Z,4.50
2023-04-05T10:12:48.162Z,4.50
2023-04-05T10:15:16.239Z,4.47
2023-04-05T10:17:58.579Z,4.13
2023-04-05T10:20:25.381Z,3.92
2023-04-05T10:22:51.764Z,4.25
2023-04-05T10:25:52.235Z,4.50
2023-04-05T10:28:32.992Z,4.15
2023-04-05T10:31:37.236Z,4.45
2023-04-05T10:34:07.248Z,4.32
2023-04-05T10:36:49.790Z,4.13
2023-04-05T10:39:26.242Z,3.90
2023-04-05T10:42:05.786Z,4.03
2023-04-05T10:44:34.005Z,4.07
2023-04-05T10:47:01.313Z,3.55
2023-04-05T10:49:49.341Z,3.60
2023-04-05T10:52:18.014Z,4.05
2023-04-05T10:54:44.605Z,3.85
2023-04-05T10:57:12.515Z,3.97
2023-04-05T10:59:46.283Z,3.78
2023-04-05T11:02:14.397Z,3.42
2023-04-05T11:04:42.375Z,4.38
2023-04-05T11:07:17.558Z,3.83
2023-04-05T11:10:00.190Z,3.47
2023-04-05T11:12:48.454Z,4.05
2023-04-05T11:15:33.296Z,3.35
2023-04-05T11:18:20.488Z,3.67
2023-04-05T11:20:52.375Z,3.50
2023-04-05T11:23:20.750Z,3.45
2023-04-05T11:25:51.383Z,3.78
2023-04-05T11:28:30.103Z,4.10
2023-04-05T11:30:58.570Z,3.80
2023-04-05T11:33:39.251Z,3.88
2023-04-05T11:36:06.379Z,3.88
2023-04-05T11:38:32.994Z,3.60
2023-04-05T11:41:21.095Z,3.88
2023-04-05T11:43:48.051Z,3.30
2023-04-05T11:46:18.366Z,3.63
2023-04-05T11:48:51.078Z,4.00
2023-04-05T11:51:20.881Z,3.42
2023-04-05T11:53:47.464Z,4.00
2023-04-05T11:56:16.038Z,3.50
2023-04-05T11:58:42.915Z,3.58
2023-04-05T12:01:09.552Z,3.65
2023-04-05T12:03:37.394Z,3.60
2023-04-05T12:06:05.647Z,3.83
2023-04-05T12:08:42.551Z,3.55
2023-04-05T12:11:13.342Z,3.97
2023-04-05T12:13:39.993Z,3.67
2023-04-05T12:16:08.355Z,3.65
2023-04-05T12:18:37.003Z,3.80
2023-04-05T12:21:08.981Z,3.97
2023-04-05T12:23:37.383Z,3.88
2023-04-05T12:26:06.582Z,3.90
2023-04-05T12:28:52.931Z,3.63
2023-04-05T12:31:41.953Z,3.83
2023-04-05T12:34:09.908Z,3.78
2023-04-05T12:36:37.477Z,3.63
2023-04-05T12:39:07.856Z,3.53
2023-04-05T12:41:34.896Z,3.63
2023-04-05T12:44:28.558Z,3.45
2023-04-05T12:47:03.032Z,3.30
2023-04-05T12:49:29.557Z,3.88
2023-04-05T12:52:01.916Z,3.75
2023-04-05T12:54:28.709Z,3.80
2023-04-05T12:56:55.595Z,3.60
2023-04-05T12:59:23.196Z,3.70
2023-04-05T13:01:50.477Z,4.03
2023-04-05T13:04:17.295Z,3.30
2023-04-05T13:06:47.200Z,3.55
2023-04-05T13:09:14.117Z,4.20
2023-04-05T13:11:40.723Z,3.15
2023-04-05T13:14:07.449Z,3.88
2023-04-05T13:16:34.058Z,3.42
2023-04-05T13:19:00.733Z,3.72
2023-04-05T13:21:27.342Z,3.80
2023-04-05T13:23:53.896Z,3.53
2023-04-05T13:26:21.092Z,3.50
2023-04-05T13:28:47.653Z,4.40
2023-04-05T13:31:15.895Z,3.65
2023-04-05T13:33:42.905Z,3.80
2023-04-05T13:36:11.009Z,3.72
2023-04-05T13:38:37.814Z,3.70
2023-04-05T13:41:04.604Z,4.07
2023-04-05T13:43:31.284Z,4.25
2023-04-05T13:45:58.004Z,3.90
2023-04-05T13:48:24.477Z,4.07
2023-04-05T13:50:51.030Z,3.85
2023-04-05T13:53:17.483Z,3.75
2023-04-05T13:55:44.088Z,3.28
2023-04-05T13:58:10.933Z,3.72
2023-04-05T14:00:40.194Z,3.92
2023-04-05T14:03:07.012Z,4.40
2023-04-05T14:05:33.674Z,4.35
2023-04-05T14:08:00.139Z,4.10
2023-04-05T14:10:26.619Z,5.32
2023-04-05T14:12:53.108Z,4.10
2023-04-05T14:15:19.707Z,5.05
2023-04-05T14:17:46.259Z,4.68
2023-04-05T14:20:12.717Z,4.72
2023-04-05T14:22:39.204Z,5.03
2023-04-05T14:25:08.067Z,4.28
2023-04-05T14:27:35.988Z,4.40
2023-04-05T14:30:02.526Z,4.40
2023-04-05T14:32:30.872Z,4.78
2023-04-05T14:34:58.864Z,4.50
2023-04-05T14:37:25.386Z,3.85
2023-04-05T14:39:51.908Z,4.10
2023-04-05T14:42:18.391Z,4.93
2023-04-05T14:44:44.869Z,4.47
2023-04-05T14:47:11.379Z,4.30
2023-04-05T14:49:37.878Z,4.00
2023-04-05T14:52:04.628Z,5.05
2023-04-05T14:54:31.137Z,4.55
2023-04-05T14:56:57.648Z,4.63
2023-04-05T14:59:24.208Z,5.43
2023-04-05T15:01:50.757Z,5.10
2023-04-05T15:04:17.450Z,4.38
2023-04-05T15:06:44.162Z,4.15
2023-04-05T15:09:10.737Z,4.63
2023-04-05T15:11:39.215Z,4.38
2023-04-05T15:14:08.554Z,4.30
2023-04-05T15:16:38.088Z,5.28
2023-04-05T15:19:04.654Z,4.68
2023-04-05T15:21:31.197Z,3.95
2023-04-05T15:23:57.701Z,4.32
2023-04-05T15:26:24.147Z,4.20
2023-04-05T15:28:50.598Z,4.18
2023-04-05T15:31:17.245Z,4.47
2023-04-05T15:33:43.793Z,4.22
2023-04-05T15:36:10.668Z,4.07
2023-04-05T15:38:37.178Z,5.05
2023-04-05T15:41:03.759Z,3.83
2023-04-05T15:43:31.463Z,5.07
2023-04-05T15:45:57.973Z,4.00
2023-04-05T15:48:24.492Z,3.63
2023-04-05T15:50:51.183Z,3.97
2023-04-05T15:53:17.760Z,3.70
2023-04-05T15:55:44.283Z,4.05
2023-04-05T15:58:11.095Z,4.55
2023-04-05T16:00:37.946Z,3.33
2023-04-05T16:03:04.601Z,3.50
2023-04-05T16:05:31.335Z,3.03
2023-04-05T16:07:57.876Z,2.97
2023-04-05T16:10:26.542Z,3.03
2023-04-05T16:12:54.404Z,3.10
2023-04-05T16:15:21.030Z,2.80
2023-04-05T16:17:47.504Z,3.03
2023-04-05T16:20:14.013Z,3.40
2023-04-05T16:22:41.469Z,3.00
2023-04-05T16:25:08.161Z,3.20
2023-04-05T16:27:35.977Z,2.90
2023-04-05T16:30:02.454Z,3.17
2023-04-05T16:32:28.944Z,3.47
2023-04-05T16:34:55.472Z,3.00
2023-04-05T16:37:22.074Z,2.80
2023-04-05T16:39:48.566Z,3.53
2023-04-05T16:42:15.416Z,3.47
2023-04-05T16:44:41.932Z,3.08
2023-04-05T16:47:08.493Z,3.45
2023-04-05T16:49:35.195Z,3.00
2023-04-05T16:52:01.740Z,3.80
2023-04-05T16:54:28.234Z,4.00
2023-04-05T16:56:54.881Z,3.75
2023-04-05T16:59:21.414Z,3.28
2023-04-05T17:01:48.075Z,3.55
2023-04-05T17:04:14.746Z,3.72
2023-04-05T17:06:41.323Z,3.58
2023-04-05T17:09:08.019Z,3.47
2023-04-05T17:11:34.563Z,3.28
2023-04-05T17:14:01.177Z,3.28
2023-04-05T17:16:27.792Z,4.70
2023-04-05T17:18:54.449Z,3.45
2023-04-05T17:21:21.144Z,3.35
2023-04-05T17:23:47.667Z,4.10
2023-04-05T17:26:14.374Z,3.42
2023-04-05T17:28:40.833Z,3.90
2023-04-05T17:31:07.477Z,3.70
2023-04-05T17:33:34.026Z,3.33
2023-04-05T17:36:02.011Z,4.30
2023-04-05T17:38:28.554Z,3.80
2023-04-05T17:40:57.648Z,3.78
2023-04-05T17:43:24.497Z,4.32
2023-04-05T17:45:51.722Z,3.97
2023-04-05T17:48:18.933Z,3.70
2023-04-05T17:50:46.697Z,3.92
2023-04-05T17:53:15.127Z,3.78
2023-04-05T17:55:41.961Z,3.72
2023-04-05T17:58:08.462Z,3.65
2023-04-05T18:00:35.017Z,3.65
2023-04-05T18:03:06.021Z,3.90
2023-04-05T18:05:34.443Z,3.72
2023-04-05T18:08:01.252Z,3.72
2023-04-05T18:10:28.112Z,3.30
2023-04-05T18:12:54.702Z,3.40
2023-04-05T18:15:21.283Z,3.78
2023-04-05T18:17:47.865Z,8.30
2023-04-05T18:20:14.653Z,5.95
2023-04-05T18:22:41.142Z,5.95
2023-04-05T18:25:11.156Z,5.18
2023-04-05T18:27:38.964Z,4.75
2023-04-05T18:30:06.686Z,4.53
2023-04-05T18:32:33.234Z,4.13
2023-04-05T18:34:59.837Z,4.43
2023-04-05T18:37:26.383Z,3.88
2023-04-05T18:39:52.927Z,5.03
2023-04-05T18:42:19.477Z,3.58
2023-04-05T18:44:46.010Z,3.53
2023-04-05T18:47:12.490Z,4.13
2023-04-05T18:49:38.926Z,4.55
2023-04-05T18:52:05.365Z,4.47
2023-04-05T18:54:31.792Z,4.00
2023-04-05T18:56:58.291Z,4.60
2023-04-05T18:59:24.801Z,4.63
2023-04-05T19:01:51.495Z,4.63
2023-04-05T19:04:18.066Z,5.20
2023-04-05T19:06:44.538Z,4.30
2023-04-05T19:09:11.931Z,4.50
2023-04-05T19:11:38.656Z,4.75
2023-04-05T19:14:05.165Z,4.65
2023-04-05T19:16:31.768Z,4.15
2023-04-05T19:18:58.345Z,3.90
2023-04-05T19:21:24.833Z,3.90
2023-04-05T19:23:51.420Z,4.68
2023-04-05T19:26:18.554Z,3.58
2023-04-05T19:28:46.019Z,4.18
2023-04-05T19:31:12.879Z,3.90
2023-04-05T19:33:39.393Z,3.60
2023-04-05T19:36:06.339Z,4.13
2023-04-05T19:38:33.260Z,4.40
2023-04-05T19:41:00.399Z,4.63
2023-04-05T19:43:27.163Z,4.78
2023-04-05T19:45:58.821Z,4.20
2023-04-05T19:48:37.315Z,4.00
2023-04-05T19:51:09.052Z,4.30
2023-04-05T19:53:42.963Z,3.80
2023-04-05T19:56:12.192Z,3.47
2023-04-05T19:58:38.984Z,4.55
2023-04-05T20:01:07.117Z,3.88
2023-04-05T20:03:40.923Z,4.32
2023-04-05T20:06:16.936Z,4.68
2023-04-05T20:08:45.810Z,4.03
2023-04-05T20:11:17.784Z,4.38
2023-04-05T20:14:11.055Z,4.20
2023-04-05T20:16:38.141Z,4.45
2023-04-05T20:19:09.833Z,4.13
2023-04-05T20:21:40.311Z,4.00
2023-04-05T20:24:13.041Z,4.18
2023-04-05T20:26:39.622Z,4.43
2023-04-05T20:29:09.192Z,4.70
2023-04-05T20:31:39.971Z,4.32
2023-04-05T20:34:14.750Z,4.93
2023-04-05T20:36:47.268Z,4.28
2023-04-05T20:39:13.806Z,3.90
2023-04-05T20:41:40.934Z,4.43
2023-04-05T20:44:07.512Z,3.85
2023-04-05T20:46:34.393Z,4.53
2023-04-05T20:49:01.191Z,3.85
2023-04-05T20:51:28.012Z,4.35
2023-04-05T20:53:55.460Z,3.97
2023-04-05T20:56:22.050Z,4.57
2023-04-05T20:58:49.211Z,3.58
2023-04-05T21:01:15.805Z,4.18
2023-04-05T21:03:42.781Z,4.10
2023-04-05T21:06:10.304Z,4.00
2023-04-05T21:08:38.258Z,4.43
2023-04-05T21:11:05.966Z,4.25
2023-04-05T21:13:33.351Z,4.38
2023-04-05T21:15:59.976Z,4.65
2023-04-05T21:18:27.125Z,3.95
2023-04-05T21:20:54.296Z,4.05
2023-04-05T21:23:23.009Z,3.97
2023-04-05T21:25:50.259Z,3.85
2023-04-05T21:28:16.861Z,3.80
2023-04-05T21:30:44.106Z,3.92
2023-04-05T21:33:11.576Z,3.92
2023-04-05T21:35:38.342Z,3.90
2023-04-05T21:38:05.592Z,4.25
2023-04-05T21:40:32.642Z,4.40
2023-04-05T21:42:59.486Z,3.90
2023-04-05T21:45:26.464Z,4.28
2023-04-05T21:47:53.406Z,3.75
2023-04-05T21:50:20.417Z,4.22
2023-04-05T21:52:47.084Z,3.95
2023-04-05T21:55:13.800Z,4.68
2023-04-05T21:57:40.290Z,4.55
2023-04-05T22:00:11.064Z,4.25
2023-04-05T22:02:40.812Z,3.92
2023-04-05T22:05:08.344Z,4.35
2023-04-05T22:07:35.880Z,3.70
2023-04-05T22:10:03.611Z,4.68
2023-04-05T22:12:30.604Z,4.28
2023-04-05T22:14:57.177Z,4.45
2023-04-05T22:17:23.782Z,4.28
2023-04-05T22:19:50.470Z,4.32
2023-04-05T22:22:17.273Z,4.10
2023-04-05T22:24:44.057Z,4.05
2023-04-05T22:27:11.573Z,3.88
2023-04-05T22:29:38.400Z,5.00
2023-04-05T22:32:05.352Z,4.25
2023-04-05T22:34:31.968Z,4.63
2023-04-05T22:36:58.506Z,4.25
2023-04-05T22:39:25.035Z,4.63
2023-04-05T22:41:51.579Z,3.85
2023-04-05T22:44:18.138Z,4.03
2023-04-05T22:46:44.741Z,4.20
2023-04-05T22:49:11.180Z,4.60
2023-04-05T22:51:37.705Z,4.30
2023-04-05T22:54:04.198Z,3.97
2023-04-05T22:56:31.535Z,5.05
2023-04-05T22:58:58.218Z,4.70
2023-04-05T23:01:24.987Z,4.53
2023-04-05T23:03:51.532Z,3.85
2023-04-05T23:06:18.099Z,4.10
2023-04-05T23:08:44.639Z,4.45
2023-04-05T23:11:11.110Z,3.97
2023-04-05T23:13:37.658Z,4.15
2023-04-05T23:16:04.597Z,4.55
2023-04-05T23:18:31.190Z,4.45
2023-04-05T23:20:57.684Z,4.40
2023-04-05T23:23:24.199Z,4.32
2023-04-05T23:25:51.126Z,5.20
2023-04-05T23:28:17.617Z,5.10
2023-04-05T23:30:44.203Z,5.13
2023-04-05T23:33:12.899Z,5.25
2023-04-05T23:35:40.557Z,4.97
2023-04-05T23:38:07.341Z,5.28
2023-04-05T23:40:33.916Z,5.18
2023-04-05T23:43:00.676Z,4.90
2023-04-05T23:45:27.568Z,5.40
2023-04-05T23:47:55.485Z,5.00
2023-04-05T23:50:22.114Z,5.22
2023-04-05T23:52:48.649Z,5.57
2023-04-05T23:55:15.633Z,5.00
2023-04-05T23:57:42.162Z,5.90
